createdAt,value
2017-03-22T00:00:17.143Z,0
2017-03-22T00:01:17.589Z,0
2017-03-22T00:02:18.066Z,0
2017-03-22T00:03:18.537Z,0
2017-03-22T00:04:19.033Z,0
2017-03-22T00:05:19.500Z,0
2017-03-22T00:06:19.964Z,0
2017-03-22T00:07:20.442Z,0
2017-03-22T00:08:20.938Z,0
2017-03-22T00:09:21.400Z,0
2017-03-22T00:10:21.857Z,0
2017-03-22T00:11:22.315Z,0
2017-03-22T00:12:22.813Z,0
2017-03-22T00:13:23.300Z,0
2017-03-22T00:14:23.786Z,0
2017-03-22T00:15:24.253Z,0
2017-03-22T00:16:24.705Z,0
2017-03-22T00:17:25.218Z,0
2017-03-22T00:18:25.180Z,0
2017-03-22T00:19:25.642Z,0
2017-03-22T00:20:26.130Z,0
2017-03-22T00:21:26.609Z,0
2017-03-22T00:22:27.087Z,0
2017-03-22T00:23:27.550Z,0
2017-03-22T00:24:28.050Z,0
2017-03-22T00:25:28.534Z,0
2017-03-22T00:26:29.017Z,0
2017-03-22T00:27:29.505Z,0
2017-03-22T00:28:29.995Z,0
2017-03-22T00:29:30.459Z,0
2017-03-22T00:30:30.904Z,0
2017-03-22T00:31:31.376Z,0
2017-03-22T00:32:31.851Z,0
2017-03-22T00:33:32.341Z,0
2017-03-22T00:34:32.809Z,0
2017-03-22T00:35:33.290Z,0
2017-03-22T00:36:33.742Z,0
2017-03-22T00:37:34.206Z,0
2017-03-22T00:38:34.661Z,0
2017-03-22T00:39:35.128Z,0
2017-03-22T00:40:35.617Z,0
2017-03-22T00:41:36.053Z,0
2017-03-22T00:42:36.547Z,0
2017-03-22T00:43:37.035Z,0
2017-03-22T00:44:37.536Z,0
2017-03-22T00:45:38.020Z,0
2017-03-22T00:46:38.497Z,0
2017-03-22T00:47:38.981Z,0
2017-03-22T00:48:39.488Z,0
2017-03-22T00:49:39.974Z,0
2017-03-22T00:50:40.447Z,0
2017-03-22T00:51:40.921Z,0
2017-03-22T00:52:41.406Z,0
2017-03-22T00:53:41.893Z,0
2017-03-22T00:54:42.389Z,0
2017-03-22T00:55:42.873Z,0
2017-03-22T00:56:43.349Z,0
2017-03-22T00:57:43.844Z,0
2017-03-22T00:58:44.327Z,0
2017-03-22T00:59:44.786Z,0
2017-03-22T01:00:45.252Z,0
2017-03-22T01:01:45.742Z,0
2017-03-22T01:02:46.223Z,0
2017-03-22T01:03:46.720Z,0
2017-03-22T01:04:47.216Z,0
2017-03-22T01:05:47.702Z,0
2017-03-22T01:06:48.179Z,0
2017-03-22T01:07:48.659Z,0
2017-03-22T01:08:49.154Z,0
2017-03-22T01:09:49.663Z,0
2017-03-22T01:10:50.136Z,0
2017-03-22T01:11:50.628Z,0
2017-03-22T01:12:51.098Z,0
2017-03-22T01:13:51.575Z,0
2017-03-22T01:14:52.063Z,0
2017-03-22T01:15:52.551Z,0
2017-03-22T01:16:53.023Z,0
2017-03-22T01:17:53.500Z,0
2017-03-22T01:18:53.981Z,0
2017-03-22T01:19:54.463Z,0
2017-03-22T01:20:54.951Z,0
2017-03-22T01:21:55.421Z,0
2017-03-22T01:22:55.884Z,0
2017-03-22T01:23:56.371Z,0
2017-03-22T01:24:56.866Z,0
2017-03-22T01:25:57.356Z,0
2017-03-22T01:26:57.837Z,0
2017-03-22T01:27:58.307Z,0
2017-03-22T01:28:58.807Z,0
2017-03-22T01:29:59.306Z,0
2017-03-22T01:30:59.805Z,0
2017-03-22T01:32:00.277Z,0
2017-03-22T01:33:00.760Z,0
2017-03-22T01:34:01.251Z,0
2017-03-22T01:35:01.748Z,0
2017-03-22T01:36:02.248Z,0
2017-03-22T01:37:02.732Z,0
2017-03-22T01:38:03.176Z,0
2017-03-22T01:39:03.665Z,0
2017-03-22T01:40:04.163Z,0
2017-03-22T01:41:04.647Z,0
2017-03-22T01:42:05.129Z,0
2017-03-22T01:43:05.605Z,0
2017-03-22T01:44:06.079Z,0
2017-03-22T01:45:06.550Z,0
2017-03-22T01:46:06.987Z,0
2017-03-22T01:47:07.486Z,0
2017-03-22T01:48:07.951Z,0
2017-03-22T01:49:08.446Z,0
2017-03-22T01:50:08.934Z,0
2017-03-22T01:51:09.425Z,0
2017-03-22T01:52:09.911Z,0
2017-03-22T01:53:10.399Z,0
2017-03-22T01:54:10.891Z,0
2017-03-22T01:55:11.385Z,0
2017-03-22T01:56:11.845Z,0
2017-03-22T01:57:12.324Z,0
2017-03-22T01:58:12.796Z,0
2017-03-22T01:59:13.229Z,0
2017-03-22T02:00:13.736Z,0
2017-03-22T02:01:14.217Z,0
2017-03-22T02:02:14.711Z,0
2017-03-22T02:03:15.201Z,0
2017-03-22T02:04:15.678Z,0
2017-03-22T02:05:16.161Z,0
2017-03-22T02:06:16.670Z,0
2017-03-22T02:07:17.133Z,0
2017-03-22T02:08:17.625Z,0
2017-03-22T02:09:18.104Z,0
2017-03-22T02:10:18.585Z,0
2017-03-22T02:11:19.102Z,0
2017-03-22T02:12:19.565Z,0
2017-03-22T02:13:20.031Z,0
2017-03-22T02:14:20.499Z,0
2017-03-22T02:15:20.969Z,0
2017-03-22T02:16:21.427Z,0
2017-03-22T02:17:21.959Z,0
2017-03-22T02:18:21.933Z,0
2017-03-22T02:19:22.403Z,0
2017-03-22T02:20:22.875Z,0
2017-03-22T02:21:23.345Z,0
2017-03-22T02:22:23.804Z,0
2017-03-22T02:23:24.344Z,0
2017-03-22T02:24:24.302Z,0
2017-03-22T02:25:24.798Z,0
2017-03-22T02:26:25.266Z,0
2017-03-22T02:27:25.755Z,0
2017-03-22T02:28:26.228Z,0
2017-03-22T02:29:26.743Z,0
2017-03-22T02:30:27.219Z,0
2017-03-22T02:31:27.698Z,0
2017-03-22T02:32:28.181Z,0
2017-03-22T02:33:28.711Z,0
2017-03-22T02:34:29.178Z,0
2017-03-22T02:35:29.634Z,0
2017-03-22T02:36:30.085Z,0
2017-03-22T02:37:30.557Z,0
2017-03-22T02:38:31.036Z,0
2017-03-22T02:39:31.496Z,0
2017-03-22T02:40:31.921Z,0
2017-03-22T02:41:32.380Z,0
2017-03-22T02:42:32.843Z,0
2017-03-22T02:43:33.345Z,0
2017-03-22T02:44:33.832Z,0
2017-03-22T02:45:34.311Z,0
2017-03-22T02:46:35.088Z,0
2017-03-22T02:47:34.909Z,0
2017-03-22T02:48:35.378Z,0
2017-03-22T02:49:35.837Z,0
2017-03-22T02:50:36.297Z,0
2017-03-22T02:51:37.139Z,0
2017-03-22T02:52:37.055Z,0
2017-03-22T02:53:37.252Z,0
2017-03-22T02:54:36.915Z,0
2017-03-22T02:55:37.412Z,0
2017-03-22T02:56:37.888Z,0
2017-03-22T02:57:38.341Z,0
2017-03-22T02:58:38.811Z,0
2017-03-22T02:59:39.310Z,0
2017-03-22T03:00:39.959Z,0
2017-03-22T03:01:40.184Z,0
2017-03-22T03:02:39.833Z,0
2017-03-22T03:03:40.315Z,0
2017-03-22T03:04:40.796Z,0
2017-03-22T03:05:41.284Z,0
2017-03-22T03:06:41.750Z,0
2017-03-22T03:07:42.235Z,0
2017-03-22T03:08:42.717Z,0
2017-03-22T03:09:43.179Z,0
2017-03-22T03:10:43.636Z,0
2017-03-22T03:11:44.095Z,0
2017-03-22T03:12:44.573Z,0
2017-03-22T03:13:45.064Z,0
2017-03-22T03:14:45.592Z,0
2017-03-22T03:15:45.566Z,0
2017-03-22T03:16:46.027Z,0
2017-03-22T03:17:46.507Z,0
2017-03-22T03:18:46.982Z,0
2017-03-22T03:19:47.479Z,0
2017-03-22T03:20:47.951Z,0
2017-03-22T03:21:48.400Z,0
2017-03-22T03:22:48.843Z,0
2017-03-22T03:23:49.303Z,0
2017-03-22T03:24:49.761Z,0
2017-03-22T03:25:50.228Z,0
2017-03-22T03:26:50.701Z,0
2017-03-22T03:27:51.236Z,0
2017-03-22T03:28:51.209Z,0
2017-03-22T03:29:51.704Z,0
2017-03-22T03:30:52.168Z,0
2017-03-22T03:31:52.656Z,0
2017-03-22T03:32:53.140Z,0
2017-03-22T03:33:53.600Z,0
2017-03-22T03:34:54.041Z,0
2017-03-22T03:35:54.535Z,0
2017-03-22T03:36:55.011Z,0
2017-03-22T03:37:55.498Z,0
2017-03-22T03:38:55.976Z,0
2017-03-22T03:39:56.472Z,0
2017-03-22T03:40:56.906Z,0
2017-03-22T03:41:57.456Z,0
2017-03-22T03:42:57.439Z,0
2017-03-22T03:43:58.232Z,0
2017-03-22T03:44:58.366Z,0
2017-03-22T03:45:58.362Z,0
2017-03-22T03:46:58.179Z,0
2017-03-22T03:47:58.099Z,0
2017-03-22T03:48:58.598Z,0
2017-03-22T03:49:59.071Z,0
2017-03-22T03:50:59.552Z,0
2017-03-22T03:52:00.026Z,0
2017-03-22T03:53:00.523Z,0
2017-03-22T03:54:01.002Z,0
2017-03-22T03:55:01.471Z,0
2017-03-22T03:56:01.955Z,0
2017-03-22T03:57:02.428Z,0
2017-03-22T03:58:02.968Z,0
2017-03-22T03:59:02.923Z,0
2017-03-22T04:00:03.417Z,0
2017-03-22T04:01:03.910Z,0
2017-03-22T04:02:04.401Z,0
2017-03-22T04:03:04.879Z,0
2017-03-22T04:04:05.331Z,0
2017-03-22T04:05:05.818Z,0
2017-03-22T04:06:06.562Z,0
2017-03-22T04:07:06.259Z,0
2017-03-22T04:08:06.733Z,0
2017-03-22T04:09:07.226Z,0
2017-03-22T04:10:07.700Z,0
2017-03-22T04:11:08.181Z,0
2017-03-22T04:12:08.654Z,0
2017-03-22T04:13:09.140Z,0
2017-03-22T04:14:09.630Z,0
2017-03-22T04:15:10.082Z,0
2017-03-22T04:16:10.568Z,0
2017-03-22T04:17:11.026Z,0
2017-03-22T04:18:11.516Z,0
2017-03-22T04:19:11.960Z,0
2017-03-22T04:20:12.419Z,0
2017-03-22T04:21:12.877Z,0
2017-03-22T04:22:13.358Z,0
2017-03-22T04:23:13.823Z,0
2017-03-22T04:24:14.294Z,0
2017-03-22T04:25:14.758Z,0
2017-03-22T04:26:15.188Z,0
2017-03-22T04:27:15.649Z,0
2017-03-22T04:28:16.137Z,0
2017-03-22T04:29:16.633Z,0
2017-03-22T04:30:17.086Z,0
2017-03-22T04:31:17.562Z,0
2017-03-22T04:32:18.091Z,0
2017-03-22T04:33:18.056Z,0
2017-03-22T04:34:18.540Z,0
2017-03-22T04:35:19.026Z,0
2017-03-22T04:36:19.489Z,0
2017-03-22T04:37:19.961Z,0
2017-03-22T04:38:20.453Z,0
2017-03-22T04:39:20.919Z,0
2017-03-22T04:40:21.372Z,0
2017-03-22T04:41:21.857Z,0
2017-03-22T04:42:22.347Z,0
2017-03-22T04:43:22.818Z,0
2017-03-22T04:44:23.315Z,0
2017-03-22T04:45:23.804Z,0
2017-03-22T04:46:24.283Z,0
2017-03-22T04:47:24.769Z,0
2017-03-22T04:48:25.248Z,0
2017-03-22T04:49:25.719Z,0
2017-03-22T04:50:26.200Z,0
2017-03-22T04:51:26.661Z,0
2017-03-22T04:52:27.144Z,0
2017-03-22T04:53:27.648Z,0
2017-03-22T04:54:28.095Z,0
2017-03-22T04:55:28.651Z,0
2017-03-22T04:56:28.766Z,0
2017-03-22T04:57:28.975Z,0
2017-03-22T04:58:29.014Z,0
2017-03-22T04:59:28.668Z,0
2017-03-22T05:00:29.207Z,0
2017-03-22T05:01:29.275Z,5
2017-03-22T05:02:29.267Z,5
2017-03-22T05:03:29.254Z,5
2017-03-22T05:04:29.783Z,5
2017-03-22T05:05:29.789Z,5
2017-03-22T05:06:30.670Z,5
2017-03-22T05:07:30.838Z,5
2017-03-22T05:08:30.918Z,10
2017-03-22T05:09:30.550Z,10
2017-03-22T05:10:30.789Z,10
2017-03-22T05:11:30.542Z,15
2017-03-22T05:12:31.105Z,15
2017-03-22T05:13:31.094Z,20
2017-03-22T05:14:31.094Z,20
2017-03-22T05:15:31.599Z,25
2017-03-22T05:16:32.124Z,25
2017-03-22T05:17:32.164Z,25
2017-03-22T05:18:32.185Z,25
2017-03-22T05:19:32.175Z,30
2017-03-22T05:20:33.173Z,30
2017-03-22T05:21:33.180Z,30
2017-03-22T05:22:33.337Z,35
2017-03-22T05:23:33.075Z,35
2017-03-22T05:24:32.914Z,40
2017-03-22T05:25:33.507Z,40
2017-03-22T05:26:33.428Z,45
2017-03-22T05:27:33.977Z,50
2017-03-22T05:28:33.972Z,55
2017-03-22T05:29:34.491Z,55
2017-03-22T05:30:34.504Z,55
2017-03-22T05:31:35.426Z,60
2017-03-22T05:32:35.483Z,65
2017-03-22T05:33:35.569Z,70
2017-03-22T05:34:35.266Z,70
2017-03-22T05:35:35.168Z,75
2017-03-22T05:36:35.701Z,80
2017-03-22T05:37:36.275Z,80
2017-03-22T05:38:36.250Z,85
2017-03-22T05:39:36.458Z,85
2017-03-22T05:40:36.736Z,90
2017-03-22T05:41:36.908Z,90
2017-03-22T05:42:36.888Z,95
2017-03-22T05:43:36.919Z,100
2017-03-22T05:44:36.592Z,100
2017-03-22T05:45:36.426Z,105
2017-03-22T05:46:36.512Z,105
2017-03-22T05:47:36.548Z,105
2017-03-22T05:48:36.520Z,110
2017-03-22T05:49:36.657Z,110
2017-03-22T05:50:36.756Z,115
2017-03-22T05:51:37.118Z,115
2017-03-22T05:52:37.191Z,115
2017-03-22T05:53:37.152Z,120
2017-03-22T05:54:36.786Z,125
2017-03-22T05:55:36.681Z,130
2017-03-22T05:56:36.793Z,140
2017-03-22T05:57:36.749Z,140
2017-03-22T05:58:36.805Z,145
2017-03-22T05:59:36.963Z,145
2017-03-22T06:00:37.047Z,150
2017-03-22T06:01:37.441Z,155
2017-03-22T06:02:37.412Z,155
2017-03-22T06:03:37.436Z,160
2017-03-22T06:04:36.947Z,165
2017-03-22T06:05:37.050Z,165
2017-03-22T06:06:37.039Z,165
2017-03-22T06:07:37.030Z,165
2017-03-22T06:08:37.060Z,165
2017-03-22T06:09:37.089Z,170
2017-03-22T06:10:37.099Z,175
2017-03-22T06:11:37.159Z,175
2017-03-22T06:12:37.156Z,180
2017-03-22T06:13:37.237Z,180
2017-03-22T06:14:37.226Z,185
2017-03-22T06:15:37.383Z,195
2017-03-22T06:16:37.699Z,205
2017-03-22T06:17:37.795Z,215
2017-03-22T06:18:37.763Z,220
2017-03-22T06:19:37.349Z,225
2017-03-22T06:20:37.342Z,220
2017-03-22T06:21:37.405Z,215
2017-03-22T06:22:37.403Z,215
2017-03-22T06:23:37.508Z,215
2017-03-22T06:24:37.546Z,205
2017-03-22T06:25:37.953Z,205
2017-03-22T06:26:37.948Z,205
2017-03-22T06:27:38.071Z,210
2017-03-22T06:28:38.053Z,210
2017-03-22T06:29:37.649Z,215
2017-03-22T06:30:37.758Z,210
2017-03-22T06:31:37.652Z,210
2017-03-22T06:32:37.751Z,215
2017-03-22T06:33:37.740Z,215
2017-03-22T06:34:37.766Z,215
2017-03-22T06:35:37.891Z,215
2017-03-22T06:36:38.337Z,220
2017-03-22T06:37:38.363Z,220
2017-03-22T06:38:38.390Z,220
2017-03-22T06:39:37.875Z,220
2017-03-22T06:40:38.146Z,225
2017-03-22T06:41:37.947Z,230
2017-03-22T06:42:38.001Z,240
2017-03-22T06:43:38.016Z,255
2017-03-22T06:44:38.013Z,290
2017-03-22T06:45:38.071Z,335
2017-03-22T06:46:38.071Z,420
2017-03-22T06:47:38.158Z,555
2017-03-22T06:48:38.137Z,630
2017-03-22T06:49:38.175Z,585
2017-03-22T06:50:38.944Z,575
2017-03-22T06:51:38.700Z,465
2017-03-22T06:52:38.802Z,440
2017-03-22T06:53:38.815Z,425
2017-03-22T06:54:38.368Z,465
2017-03-22T06:55:38.366Z,600
2017-03-22T06:56:38.420Z,600
2017-03-22T06:57:38.454Z,605
2017-03-22T06:58:38.463Z,655
2017-03-22T06:59:38.488Z,690
2017-03-22T07:00:38.508Z,600
2017-03-22T07:01:38.541Z,745
2017-03-22T07:02:38.524Z,800
2017-03-22T07:03:38.577Z,885
2017-03-22T07:04:38.575Z,925
2017-03-22T07:05:39.052Z,1185
2017-03-22T07:06:39.194Z,1235
2017-03-22T07:07:39.186Z,1235
2017-03-22T07:08:39.263Z,1215
2017-03-22T07:09:38.736Z,1175
2017-03-22T07:10:38.747Z,1320
2017-03-22T07:11:38.849Z,1330
2017-03-22T07:12:38.818Z,1305
2017-03-22T07:13:38.841Z,1155
2017-03-22T07:14:38.942Z,1395
2017-03-22T07:15:38.924Z,1260
2017-03-22T07:16:39.067Z,975
2017-03-22T07:17:39.024Z,1055
2017-03-22T07:18:39.066Z,1005
2017-03-22T07:19:39.088Z,935
2017-03-22T07:20:39.522Z,775
2017-03-22T07:21:39.593Z,715
2017-03-22T07:22:39.672Z,755
2017-03-22T07:23:39.484Z,725
2017-03-22T07:24:39.219Z,765
2017-03-22T07:25:39.271Z,840
2017-03-22T07:26:39.270Z,780
2017-03-22T07:27:39.313Z,805
2017-03-22T07:28:39.364Z,835
2017-03-22T07:29:39.388Z,845
2017-03-22T07:30:39.426Z,830
2017-03-22T07:31:39.702Z,930
2017-03-22T07:32:39.478Z,1125
2017-03-22T07:33:40.067Z,1090
2017-03-22T07:34:40.045Z,1090
2017-03-22T07:35:39.584Z,1195
2017-03-22T07:36:39.657Z,1280
2017-03-22T07:37:39.712Z,1200
2017-03-22T07:38:39.691Z,1365
2017-03-22T07:39:39.770Z,1510
2017-03-22T07:40:40.199Z,1560
2017-03-22T07:41:40.208Z,1480
2017-03-22T07:42:40.249Z,1445
2017-03-22T07:43:40.446Z,1480
2017-03-22T07:44:39.897Z,1440
2017-03-22T07:45:39.956Z,1540
2017-03-22T07:46:39.994Z,1485
2017-03-22T07:47:39.994Z,1640
2017-03-22T07:48:40.040Z,1635
2017-03-22T07:49:40.087Z,1625
2017-03-22T07:50:40.616Z,1450
2017-03-22T07:51:40.600Z,1500
2017-03-22T07:52:40.646Z,1530
2017-03-22T07:53:40.741Z,1605
2017-03-22T07:54:40.254Z,1615
2017-03-22T07:55:40.433Z,1655
2017-03-22T07:56:40.320Z,1710
2017-03-22T07:57:40.417Z,1730
2017-03-22T07:58:40.414Z,1770
2017-03-22T07:59:40.517Z,1795
2017-03-22T08:00:40.687Z,1745
2017-03-22T08:01:40.495Z,1720
2017-03-22T08:02:40.594Z,1655
2017-03-22T08:03:40.991Z,1755
2017-03-22T08:04:40.655Z,1750
2017-03-22T08:05:41.393Z,1880
2017-03-22T08:06:41.104Z,1950
2017-03-22T08:07:41.236Z,1845
2017-03-22T08:08:41.266Z,1870
2017-03-22T08:09:40.801Z,1815
2017-03-22T08:10:40.916Z,1815
2017-03-22T08:11:40.854Z,1770
2017-03-22T08:12:40.938Z,1795
2017-03-22T08:13:40.984Z,1725
2017-03-22T08:14:41.004Z,1740
2017-03-22T08:15:41.453Z,1865
2017-03-22T08:16:41.438Z,1910
2017-03-22T08:17:41.652Z,1915
2017-03-22T08:18:41.641Z,1930
2017-03-22T08:19:41.161Z,1910
2017-03-22T08:20:41.247Z,1885
2017-03-22T08:21:41.257Z,2015
2017-03-22T08:22:41.336Z,2000
2017-03-22T08:23:41.382Z,1925
2017-03-22T08:24:41.417Z,1920
2017-03-22T08:25:41.436Z,1875
2017-03-22T08:26:41.849Z,1870
2017-03-22T08:27:42.050Z,1925
2017-03-22T08:28:41.803Z,1985
2017-03-22T08:29:41.872Z,2005
2017-03-22T08:30:41.627Z,1965
2017-03-22T08:31:41.812Z,1990
2017-03-22T08:32:41.708Z,2085
2017-03-22T08:33:41.800Z,1970
2017-03-22T08:34:41.795Z,1935
2017-03-22T08:35:41.896Z,1905
2017-03-22T08:36:42.020Z,1930
2017-03-22T08:37:42.421Z,1990
2017-03-22T08:38:42.467Z,1975
2017-03-22T08:39:42.507Z,2030
2017-03-22T08:40:42.091Z,2080
2017-03-22T08:41:42.214Z,2110
2017-03-22T08:42:42.145Z,2090
2017-03-22T08:43:42.209Z,2080
2017-03-22T08:44:42.229Z,2065
2017-03-22T08:45:42.536Z,2135
2017-03-22T08:46:42.985Z,2180
2017-03-22T08:47:42.770Z,2095
2017-03-22T08:48:42.891Z,2195
2017-03-22T08:49:42.408Z,2180
2017-03-22T08:50:42.464Z,2095
2017-03-22T08:51:42.522Z,2205
2017-03-22T08:52:42.565Z,2235
2017-03-22T08:53:42.621Z,2090
2017-03-22T08:54:42.642Z,2025
2017-03-22T08:55:43.059Z,1960
2017-03-22T08:56:42.742Z,2040
2017-03-22T08:57:42.899Z,2055
2017-03-22T08:58:42.938Z,1980
2017-03-22T08:59:42.908Z,1975
2017-03-22T09:00:42.885Z,1960
2017-03-22T09:01:42.918Z,1845
2017-03-22T09:02:43.001Z,1660
2017-03-22T09:03:43.069Z,1650
2017-03-22T09:04:43.124Z,1785
2017-03-22T09:05:43.766Z,1640
2017-03-22T09:06:43.498Z,1810
2017-03-22T09:07:43.741Z,1820
2017-03-22T09:08:43.740Z,1600
2017-03-22T09:09:43.292Z,1805
2017-03-22T09:10:43.327Z,2070
2017-03-22T09:11:43.346Z,2230
2017-03-22T09:12:43.446Z,2290
2017-03-22T09:13:43.479Z,2215
2017-03-22T09:14:43.510Z,1995
2017-03-22T09:15:43.690Z,1430
2017-03-22T09:16:43.935Z,1925
2017-03-22T09:17:43.745Z,2040
2017-03-22T09:18:44.073Z,2145
2017-03-22T09:19:43.729Z,2240
2017-03-22T09:20:43.937Z,2390
2017-03-22T09:21:43.795Z,2355
2017-03-22T09:22:43.877Z,2335
2017-03-22T09:23:44.108Z,2235
2017-03-22T09:24:43.916Z,2205
2017-03-22T09:25:43.984Z,2270
2017-03-22T09:26:44.066Z,2205
2017-03-22T09:27:44.064Z,2175
2017-03-22T09:28:44.129Z,2285
2017-03-22T09:29:44.155Z,2360
2017-03-22T09:30:44.716Z,2310
2017-03-22T09:31:44.616Z,2375
2017-03-22T09:32:44.722Z,2365
2017-03-22T09:33:44.380Z,2350
2017-03-22T09:34:44.502Z,2375
2017-03-22T09:35:44.697Z,2335
2017-03-22T09:36:44.461Z,1970
2017-03-22T09:37:44.571Z,2305
2017-03-22T09:38:44.570Z,2505
2017-03-22T09:39:44.598Z,2485
2017-03-22T09:40:45.082Z,2570
2017-03-22T09:41:44.856Z,2245
2017-03-22T09:42:45.322Z,1860
2017-03-22T09:43:45.333Z,2265
2017-03-22T09:44:44.882Z,2445
2017-03-22T09:45:44.905Z,1880
2017-03-22T09:46:44.942Z,2180
2017-03-22T09:47:44.956Z,2285
2017-03-22T09:48:44.968Z,2315
2017-03-22T09:49:45.017Z,2145
2017-03-22T09:50:45.069Z,1450
2017-03-22T09:51:45.181Z,1575
2017-03-22T09:52:45.180Z,1010
2017-03-22T09:53:45.240Z,1195
2017-03-22T09:54:45.278Z,1115
2017-03-22T09:55:45.758Z,915
2017-03-22T09:56:45.934Z,1080
2017-03-22T09:57:45.952Z,1050
2017-03-22T09:58:45.968Z,945
2017-03-22T09:59:45.546Z,885
2017-03-22T10:00:45.590Z,790
2017-03-22T10:01:45.581Z,695
2017-03-22T10:02:45.630Z,785
2017-03-22T10:03:45.660Z,770
2017-03-22T10:04:45.721Z,695
2017-03-22T10:05:45.805Z,780
2017-03-22T10:06:45.791Z,795
2017-03-22T10:07:45.855Z,805
2017-03-22T10:08:45.852Z,800
2017-03-22T10:09:45.890Z,780
2017-03-22T10:10:46.017Z,770
2017-03-22T10:11:46.404Z,770
2017-03-22T10:12:46.368Z,745
2017-03-22T10:13:46.590Z,760
2017-03-22T10:14:46.296Z,750
2017-03-22T10:15:46.156Z,750
2017-03-22T10:16:46.207Z,755
2017-03-22T10:17:46.267Z,570
2017-03-22T10:18:46.287Z,775
2017-03-22T10:19:46.318Z,745
2017-03-22T10:20:46.540Z,720
2017-03-22T10:21:46.390Z,710
2017-03-22T10:22:46.455Z,695
2017-03-22T10:23:46.490Z,705
2017-03-22T10:24:46.666Z,685
2017-03-22T10:25:46.930Z,675
2017-03-22T10:26:46.585Z,655
2017-03-22T10:27:46.727Z,625
2017-03-22T10:28:46.821Z,645
2017-03-22T10:29:46.705Z,620
2017-03-22T10:30:47.008Z,600
2017-03-22T10:31:46.774Z,610
2017-03-22T10:32:46.873Z,550
2017-03-22T10:33:46.874Z,575
2017-03-22T10:34:47.001Z,590
2017-03-22T10:35:47.332Z,540
2017-03-22T10:36:47.093Z,625
2017-03-22T10:37:47.387Z,550
2017-03-22T10:38:47.614Z,600
2017-03-22T10:39:47.100Z,600
2017-03-22T10:40:47.159Z,710
2017-03-22T10:41:47.212Z,700
2017-03-22T10:42:47.244Z,695
2017-03-22T10:43:47.314Z,715
2017-03-22T10:44:47.354Z,735
2017-03-22T10:45:47.377Z,730
2017-03-22T10:46:47.355Z,705
2017-03-22T10:47:47.401Z,675
2017-03-22T10:48:47.476Z,655
2017-03-22T10:49:47.500Z,670
2017-03-22T10:50:47.959Z,675
2017-03-22T10:51:47.992Z,665
2017-03-22T10:52:47.968Z,675
2017-03-22T10:53:48.053Z,670
2017-03-22T10:54:47.708Z,685
2017-03-22T10:55:47.689Z,685
2017-03-22T10:56:47.809Z,675
2017-03-22T10:57:47.793Z,690
2017-03-22T10:58:47.803Z,735
2017-03-22T10:59:47.902Z,755
2017-03-22T11:00:47.942Z,770
2017-03-22T11:01:47.973Z,780
2017-03-22T11:02:47.952Z,890
2017-03-22T11:03:48.005Z,920
2017-03-22T11:04:48.104Z,925
2017-03-22T11:05:48.148Z,890
2017-03-22T11:06:48.556Z,845
2017-03-22T11:07:48.584Z,695
2017-03-22T11:08:48.704Z,560
2017-03-22T11:09:48.588Z,535
2017-03-22T11:10:48.300Z,435
2017-03-22T11:11:48.370Z,460
2017-03-22T11:12:48.436Z,490
2017-03-22T11:13:48.389Z,480
2017-03-22T11:14:48.474Z,475
2017-03-22T11:15:48.495Z,485
2017-03-22T11:16:48.875Z,450
2017-03-22T11:17:48.550Z,450
2017-03-22T11:18:48.576Z,425
2017-03-22T11:19:48.577Z,380
2017-03-22T11:20:48.882Z,390
2017-03-22T11:21:49.087Z,400
2017-03-22T11:22:49.156Z,455
2017-03-22T11:23:49.217Z,425
2017-03-22T11:24:48.783Z,435
2017-03-22T11:25:49.177Z,425
2017-03-22T11:26:48.885Z,405
2017-03-22T11:27:48.885Z,400
2017-03-22T11:28:48.965Z,400
2017-03-22T11:29:49.000Z,380
2017-03-22T11:30:48.998Z,395
2017-03-22T11:31:49.037Z,410
2017-03-22T11:32:49.136Z,395
2017-03-22T11:33:49.086Z,420
2017-03-22T11:34:49.190Z,425
2017-03-22T11:35:49.130Z,415
2017-03-22T11:36:49.576Z,415
2017-03-22T11:37:49.799Z,410
2017-03-22T11:38:49.757Z,390
2017-03-22T11:39:49.869Z,365
2017-03-22T11:40:49.365Z,345
2017-03-22T11:41:49.424Z,340
2017-03-22T11:42:49.439Z,355
2017-03-22T11:43:49.456Z,370
2017-03-22T11:44:49.547Z,390
2017-03-22T11:45:49.518Z,415
2017-03-22T11:46:49.572Z,440
2017-03-22T11:47:49.668Z,455
2017-03-22T11:48:49.625Z,465
2017-03-22T11:49:49.675Z,470
2017-03-22T11:50:49.744Z,470
2017-03-22T11:51:49.842Z,485
2017-03-22T11:52:49.750Z,490
2017-03-22T11:53:50.153Z,495
2017-03-22T11:54:49.832Z,505
2017-03-22T11:55:49.854Z,500
2017-03-22T11:56:49.986Z,500
2017-03-22T11:57:49.915Z,510
2017-03-22T11:58:49.982Z,500
2017-03-22T11:59:50.028Z,490
2017-03-22T12:00:50.493Z,495
2017-03-22T12:01:50.396Z,500
2017-03-22T12:02:50.565Z,515
2017-03-22T12:03:50.639Z,515
2017-03-22T12:04:50.185Z,525
2017-03-22T12:05:50.274Z,535
2017-03-22T12:06:50.267Z,530
2017-03-22T12:07:50.271Z,520
2017-03-22T12:08:50.280Z,510
2017-03-22T12:09:50.398Z,505
2017-03-22T12:10:50.390Z,500
2017-03-22T12:11:50.490Z,490
2017-03-22T12:12:50.497Z,480
2017-03-22T12:13:50.559Z,470
2017-03-22T12:14:50.522Z,460
2017-03-22T12:15:50.528Z,445
2017-03-22T12:16:51.015Z,445
2017-03-22T12:17:51.001Z,435
2017-03-22T12:18:51.206Z,430
2017-03-22T12:19:51.196Z,425
2017-03-22T12:20:50.699Z,415
2017-03-22T12:21:50.805Z,405
2017-03-22T12:22:50.821Z,405
2017-03-22T12:23:50.792Z,400
2017-03-22T12:24:50.862Z,395
2017-03-22T12:25:50.962Z,405
2017-03-22T12:26:51.417Z,405
2017-03-22T12:27:51.417Z,410
2017-03-22T12:28:51.487Z,405
2017-03-22T12:29:51.530Z,410
2017-03-22T12:30:51.068Z,415
2017-03-22T12:31:51.145Z,405
2017-03-22T12:32:51.137Z,395
2017-03-22T12:33:51.140Z,385
2017-03-22T12:34:51.190Z,390
2017-03-22T12:35:51.243Z,385
2017-03-22T12:36:51.272Z,380
2017-03-22T12:37:51.305Z,375
2017-03-22T12:38:51.338Z,370
2017-03-22T12:39:51.388Z,355
2017-03-22T12:40:51.426Z,345
2017-03-22T12:41:51.499Z,330
2017-03-22T12:42:51.501Z,320
2017-03-22T12:43:51.537Z,315
2017-03-22T12:44:51.553Z,310
2017-03-22T12:45:51.946Z,305
2017-03-22T12:46:51.838Z,305
2017-03-22T12:47:52.037Z,305
2017-03-22T12:48:52.153Z,310
2017-03-22T12:49:52.167Z,310
2017-03-22T12:50:52.117Z,315
2017-03-22T12:51:51.915Z,320
2017-03-22T12:52:51.942Z,330
2017-03-22T12:53:51.925Z,340
2017-03-22T12:54:52.038Z,355
2017-03-22T12:55:52.017Z,360
2017-03-22T12:56:52.127Z,360
2017-03-22T12:57:52.179Z,360
2017-03-22T12:58:51.980Z,360
2017-03-22T12:59:52.043Z,365
2017-03-22T13:00:52.404Z,375
2017-03-22T13:01:52.126Z,380
2017-03-22T13:02:52.173Z,385
2017-03-22T13:03:52.200Z,385
2017-03-22T13:04:52.226Z,385
2017-03-22T13:05:52.291Z,375
2017-03-22T13:06:52.294Z,365
2017-03-22T13:07:52.327Z,365
2017-03-22T13:08:52.329Z,365
2017-03-22T13:09:52.391Z,365
2017-03-22T13:10:52.402Z,360
2017-03-22T13:11:52.458Z,355
2017-03-22T13:12:52.938Z,355
2017-03-22T13:13:53.042Z,350
2017-03-22T13:14:53.093Z,345
2017-03-22T13:15:52.747Z,335
2017-03-22T13:16:52.607Z,330
2017-03-22T13:17:52.680Z,320
2017-03-22T13:18:52.662Z,315
2017-03-22T13:19:52.767Z,310
2017-03-22T13:20:52.771Z,310
2017-03-22T13:21:52.761Z,310
2017-03-22T13:22:52.816Z,310
2017-03-22T13:23:52.880Z,310
2017-03-22T13:24:52.872Z,310
2017-03-22T13:25:52.983Z,320
2017-03-22T13:26:53.357Z,330
2017-03-22T13:27:53.313Z,340
2017-03-22T13:28:53.565Z,350
2017-03-22T13:29:53.060Z,360
2017-03-22T13:30:53.098Z,365
2017-03-22T13:31:53.087Z,375
2017-03-22T13:32:53.114Z,385
2017-03-22T13:33:53.198Z,390
2017-03-22T13:34:53.239Z,390
2017-03-22T13:35:53.264Z,380
2017-03-22T13:36:53.297Z,370
2017-03-22T13:37:53.316Z,360
2017-03-22T13:38:53.372Z,350
2017-03-22T13:39:53.808Z,345
2017-03-22T13:40:53.397Z,335
2017-03-22T13:41:53.441Z,330
2017-03-22T13:42:53.470Z,325
2017-03-22T13:43:53.492Z,320
2017-03-22T13:44:53.566Z,320
2017-03-22T13:45:53.585Z,320
2017-03-22T13:46:53.637Z,320
2017-03-22T13:47:53.668Z,320
2017-03-22T13:48:53.680Z,325
2017-03-22T13:49:53.764Z,330
2017-03-22T13:50:53.983Z,340
2017-03-22T13:51:54.195Z,335
2017-03-22T13:52:54.359Z,340
2017-03-22T13:53:54.284Z,335
2017-03-22T13:54:54.342Z,335
2017-03-22T13:55:54.140Z,335
2017-03-22T13:56:53.938Z,330
2017-03-22T13:57:53.959Z,325
2017-03-22T13:58:54.009Z,325
2017-03-22T13:59:54.006Z,330
2017-03-22T14:00:54.737Z,345
2017-03-22T14:01:54.485Z,345
2017-03-22T14:02:54.436Z,345
2017-03-22T14:03:54.207Z,335
2017-03-22T14:04:54.207Z,320